Time;durP1;ratioP1;P1;durP2;ratioP2;P2;SDS_P1;SDS_P2;PMS_P1;PMS_P2;Temp;Humidity;BMP_temperature;BMP_pressure;BME280_temperature;BME280_humidity;BME280_pressure;Samples;Min_cycle;Max_cycle;Signal;HPM_P1;HPM_P2
2023/09/07 00:00:16;;;;;;;;;8.50;8.50;;;;;22.34;72.19;101976.00;5013736;28;8837;-69
2023/09/07 00:02:42;;;;;;;;;11.75;11.50;;;;;22.34;72.35;101975.16;5012620;28;8837;-69
2023/09/07 00:05:09;;;;;;;;;9.25;9.25;;;;;22.34;72.41;101977.91;5013996;28;8864;-69
2023/09/07 00:07:37;;;;;;;;;8.25;8.25;;;;;22.31;72.39;101970.16;5014069;28;8959;-69
2023/09/07 00:10:04;;;;;;;;;7.25;7.25;;;;;22.30;72.44;101968.50;5009923;28;8933;-69
2023/09/07 00:12:31;;;;;;;;;10.00;8.75;;;;;22.28;72.26;101963.28;5012540;28;8808;-69
2023/09/07 00:14:58;;;;;;;;;10.00;9.00;;;;;22.26;72.25;101959.91;5009334;28;8837;-69
2023/09/07 00:17:25;;;;;;;;;9.00;9.00;;;;;22.26;72.29;101953.59;4994260;28;8841;-68
2023/09/07 00:19:52;;;;;;;;;8.00;8.00;;;;;22.25;72.18;101949.22;5009133;28;8837;-70
2023/09/07 00:22:18;;;;;;;;;6.50;6.50;;;;;22.21;72.21;101955.19;4998154;28;9580;-69
2023/09/07 00:24:45;;;;;;;;;8.00;8.00;;;;;22.19;71.80;101951.84;5013164;28;8819;-68
2023/09/07 00:27:12;;;;;;;;;7.00;7.00;;;;;22.18;72.02;101952.09;5013883;28;8827;-69
2023/09/07 00:29:38;;;;;;;;;9.00;8.00;;;;;22.15;71.67;101949.81;5013844;28;8890;-68
2023/09/07 00:32:05;;;;;;;;;7.50;6.50;;;;;22.12;71.60;101953.88;4995994;28;8831;-68
2023/09/07 00:34:32;;;;;;;;;5.25;5.25;;;;;22.09;71.97;101957.09;4996109;28;8836;-68
2023/09/07 00:36:59;;;;;;;;;7.25;7.25;;;;;22.06;71.67;101957.59;5013669;28;8835;-68
2023/09/07 00:39:26;;;;;;;;;7.00;7.00;;;;;22.04;71.54;101953.41;4994590;28;8817;-68
2023/09/07 00:41:53;;;;;;;;;7.00;7.00;;;;;22.02;71.46;101956.41;5010875;28;8815;-68
2023/09/07 00:44:19;;;;;;;;;9.00;9.00;;;;;22.01;71.39;101951.19;4979830;28;8831;-69
2023/09/07 00:46:45;;;;;;;;;6.75;6.50;;;;;22.00;71.28;101949.47;5006933;28;8867;-69
2023/09/07 00:49:14;;;;;;;;;7.75;7.00;;;;;22.00;71.05;101950.34;5014517;28;8823;-69
2023/09/07 00:51:41;;;;;;;;;8.00;8.00;;;;;22.00;70.93;101953.09;5013524;28;8878;-69
2023/09/07 00:54:07;;;;;;;;;6.25;6.25;;;;;21.99;70.72;101956.88;5012916;28;8831;-69
2023/09/07 00:56:36;;;;;;;;;5.00;5.00;;;;;21.99;70.68;101945.91;5011755;28;8855;-69
2023/09/07 00:59:02;;;;;;;;;7.00;7.00;;;;;21.97;70.54;101948.91;5012948;28;9546;-69
2023/09/07 01:01:30;;;;;;;;;7.25;7.25;;;;;21.96;70.52;101946.44;4992728;28;8883;-69
2023/09/07 01:03:57;;;;;;;;;6.00;6.00;;;;;21.95;70.51;101951.06;4995384;28;8843;-69
2023/09/07 01:06:30;;;;;;;;;8.25;5.75;;;;;21.95;70.35;101945.56;4995878;28;8867;-69
2023/09/07 01:09:03;;;;;;;;;9.00;7.00;;;;;21.96;70.39;101940.94;5013079;28;8827;-69
2023/09/07 01:11:37;;;;;;;;;6.00;6.00;;;;;21.97;70.45;101945.34;5012904;28;9656;-69
2023/09/07 01:14:04;;;;;;;;;9.00;7.00;;;;;21.98;70.05;101938.78;4994796;28;8933;-69
2023/09/07 01:16:35;;;;;;;;;6.25;5.75;;;;;22.00;69.95;101942.13;5010419;28;8843;-70
2023/09/07 01:19:04;;;;;;;;;7.00;6.00;;;;;21.99;70.27;101943.16;4994959;28;9913;-70
2023/09/07 01:21:35;;;;;;;;;7.00;4.75;;;;;22.00;69.96;101946.75;5011064;28;8862;-69
2023/09/07 01:24:08;;;;;;;;;6.75;6.75;;;;;21.98;69.90;101942.34;5011701;28;8839;-69
2023/09/07 01:26:39;;;;;;;;;10.00;6.75;;;;;21.97;69.89;101943.44;4994910;28;9577;-69
2023/09/07 01:29:08;;;;;;;;;6.75;6.75;;;;;21.96;69.47;101941.78;5002088;28;8848;-69
2023/09/07 01:31:36;;;;;;;;;7.50;7.25;;;;;21.95;69.26;101936.50;4992184;28;8865;-69
2023/09/07 01:34:06;;;;;;;;;5.00;4.00;;;;;21.93;69.19;101933.19;5001787;28;9592;-69
2023/09/07 01:36:32;;;;;;;;;8.00;5.25;;;;;21.93;69.32;101933.19;5011071;28;9015;-69
2023/09/07 01:39:01;;;;;;;;;7.75;7.75;;;;;21.91;69.10;101932.59;5009880;28;8842;-69
2023/09/07 01:41:29;;;;;;;;;7.00;3.75;;;;;21.90;69.13;101931.75;5010720;28;8975;-69
2023/09/07 01:43:55;;;;;;;;;7.00;7.00;;;;;21.89;69.08;101927.38;4994304;28;8930;-69
2023/09/07 01:46:22;;;;;;;;;8.25;7.75;;;;;21.89;68.99;101937.50;5007886;28;8970;-69
2023/09/07 01:48:49;;;;;;;;;8.50;8.25;;;;;21.87;68.99;101932.25;4994719;28;8848;-69
2023/09/07 01:51:15;;;;;;;;;6.25;6.25;;;;;21.86;68.96;101936.06;5007182;28;8973;-69
2023/09/07 01:53:42;;;;;;;;;3.00;3.00;;;;;21.85;68.83;101937.16;4991231;28;8863;-70
2023/09/07 01:56:09;;;;;;;;;7.25;7.25;;;;;21.84;68.83;101937.41;4992571;28;8836;-70
2023/09/07 01:58:37;;;;;;;;;6.00;6.00;;;;;21.81;68.58;101932.41;4991265;28;8834;-69
2023/09/07 02:01:03;;;;;;;;;6.50;6.25;;;;;21.78;68.89;101935.63;5000877;28;8869;-69
2023/09/07 02:03:30;;;;;;;;;7.75;6.75;;;;;21.76;68.82;101935.88;4994257;28;8856;-69
2023/09/07 02:05:56;;;;;;;;;11.25;7.50;;;;;21.75;69.04;101925.97;5009603;28;8862;-70
2023/09/07 02:08:23;;;;;;;;;4.25;4.25;;;;;21.74;68.53;101929.78;4987500;28;9624;-70
2023/09/07 02:10:49;;;;;;;;;5.50;5.50;;;;;21.71;68.78;101931.13;4993778;28;8844;-69
2023/09/07 02:13:16;;;;;;;;;6.75;6.75;;;;;21.69;68.92;101925.03;5010413;28;8955;-69
2023/09/07 02:15:42;;;;;;;;;10.00;9.75;;;;;21.68;68.56;101925.28;5011467;28;8856;-69
2023/09/07 02:18:09;;;;;;;;;8.00;7.00;;;;;21.66;68.77;101930.16;4994119;28;8843;-69
2023/09/07 02:20:36;;;;;;;;;8.50;7.25;;;;;21.63;68.68;101936.97;5011330;28;8831;-69
2023/09/07 02:23:03;;;;;;;;;8.75;8.75;;;;;21.60;68.81;101929.22;5010471;28;8861;-69
2023/09/07 02:25:30;;;;;;;;;4.00;4.00;;;;;21.58;68.96;101939.59;5011443;28;8921;-69
2023/09/07 02:27:57;;;;;;;;;5.75;5.75;;;;;21.57;68.92;101948.06;5010201;28;8855;-71
2023/09/07 02:30:23;;;;;;;;;9.00;8.00;;;;;21.53;69.02;101942.22;5011475;28;8864;-70
2023/09/07 02:32:51;;;;;;;;;7.00;6.25;;;;;21.52;68.97;101943.31;5008574;28;8844;-69
2023/09/07 02:35:17;;;;;;;;;7.50;7.50;;;;;21.50;68.80;101941.88;4994256;28;8837;-69
2023/09/07 02:37:44;;;;;;;;;8.50;7.25;;;;;21.49;68.74;101943.78;5007199;28;8865;-70
2023/09/07 02:40:11;;;;;;;;;7.50;7.50;;;;;21.47;69.05;101938.56;5006617;28;8860;-69
2023/09/07 02:42:38;;;;;;;;;7.00;7.00;;;;;21.45;69.03;101940.69;5006463;28;8821;-70
2023/09/07 02:45:05;;;;;;;;;6.00;6.00;;;;;21.45;68.98;101935.22;5008740;28;9681;-69
2023/09/07 02:47:31;;;;;;;;;9.00;9.00;;;;;21.44;68.82;101938.19;4992569;28;8840;-70
2023/09/07 02:49:59;;;;;;;;;6.00;6.00;;;;;21.40;68.96;101937.84;4990042;28;8923;-69
2023/09/07 02:52:25;;;;;;;;;8.50;8.50;;;;;21.39;68.99;101929.84;4990475;28;8919;-69
2023/09/07 02:54:52;;;;;;;;;10.00;7.75;;;;;21.38;69.10;101937.22;5009938;28;8859;-69
2023/09/07 02:57:18;;;;;;;;;5.75;5.75;;;;;21.36;69.19;101935.81;5009750;28;8835;-70
2023/09/07 02:59:46;;;;;;;;;8.50;6.25;;;;;21.34;69.37;101930.56;5002246;28;8854;-70
2023/09/07 03:02:13;;;;;;;;;9.00;7.00;;;;;21.32;69.49;101935.47;4993425;28;8820;-69
2023/09/07 03:04:40;;;;;;;;;7.50;7.50;;;;;21.33;69.67;101936.28;5006124;28;8846;-69
2023/09/07 03:07:06;;;;;;;;;8.00;8.00;;;;;21.31;69.59;101942.00;4990984;28;8838;-69
2023/09/07 03:09:33;;;;;;;;;9.50;7.75;;;;;21.31;69.51;101938.38;5003295;28;8833;-69
2023/09/07 03:12:00;;;;;;;;;9.00;5.75;;;;;21.28;69.56;101931.50;4976768;28;8844;-69
2023/09/07 03:14:28;;;;;;;;;7.75;7.75;;;;;21.27;69.57;101929.84;5009398;28;8855;-69
2023/09/07 03:16:55;;;;;;;;;8.00;8.00;;;;;21.25;69.65;101934.72;4993009;28;9772;-69
2023/09/07 03:19:21;;;;;;;;;7.50;7.25;;;;;21.21;69.55;101934.34;5010738;28;8832;-69
2023/09/07 03:21:48;;;;;;;;;6.50;6.50;;;;;21.17;69.81;101938.66;5007202;28;8855;-69
2023/09/07 03:24:15;;;;;;;;;9.75;9.75;;;;;21.12;69.85;101938.53;4975043;28;8839;-69
2023/09/07 03:26:42;;;;;;;;;9.50;8.75;;;;;21.06;70.03;101942.22;4992678;28;8828;-69
2023/09/07 03:29:09;;;;;;;;;6.50;6.25;;;;;21.03;70.14;101941.88;5009473;28;8838;-69
2023/09/07 03:31:36;;;;;;;;;8.25;8.25;;;;;20.99;70.44;101938.78;5010216;28;8923;-69
2023/09/07 03:34:02;;;;;;;;;11.00;9.25;;;;;20.96;70.61;101928.28;5009129;28;8854;-69
2023/09/07 03:36:29;;;;;;;;;7.25;7.25;;;;;20.92;70.69;101929.84;5009970;28;8859;-69
2023/09/07 03:38:55;;;;;;;;;9.50;8.75;;;;;20.89;70.80;101935.78;5007187;28;10907;-69
2023/09/07 03:41:22;;;;;;;;;9.50;7.75;;;;;20.85;70.92;101929.94;4989226;28;8841;-69
2023/09/07 03:43:49;;;;;;;;;8.75;8.50;;;;;20.83;71.10;101936.72;4992682;28;8867;-69
2023/09/07 03:46:15;;;;;;;;;10.00;9.25;;;;;20.79;71.15;101935.53;4992866;28;8843;-69
2023/09/07 03:48:42;;;;;;;;;8.50;8.50;;;;;20.76;71.29;101934.09;4992879;28;8850;-69
2023/09/07 03:51:08;;;;;;;;;7.75;7.75;;;;;20.73;71.58;101929.91;4992373;28;8851;-69
2023/09/07 03:53:35;;;;;;;;;12.25;11.50;;;;;20.71;71.78;101920.28;5007617;28;8867;-69
2023/09/07 03:56:03;;;;;;;;;13.00;12.00;;;;;20.70;71.82;101932.28;4992925;28;8843;-69
2023/09/07 03:58:30;;;;;;;;;9.25;9.25;;;;;20.67;71.85;101924.56;5008240;28;8860;-69
2023/09/07 04:00:59;;;;;;;;;13.00;11.25;;;;;20.65;72.00;101929.44;4992244;28;8863;-69
2023/09/07 04:03:27;;;;;;;;;10.25;10.25;;;;;20.64;72.04;101922.28;4992468;28;8844;-69
2023/09/07 04:05:55;;;;;;;;;9.50;9.50;;;;;20.62;72.12;101924.41;5010147;28;9529;-69
2023/09/07 04:08:22;;;;;;;;;11.50;9.75;;;;;20.61;72.19;101922.75;5007069;28;8924;-70
2023/09/07 04:10:48;;;;;;;;;9.75;9.75;;;;;20.61;72.31;101922.75;5009528;28;8838;-70
2023/09/07 04:13:15;;;;;;;;;10.50;9.50;;;;;20.60;72.17;101934.78;4992218;28;8875;-69
2023/09/07 04:15:43;;;;;;;;;11.00;10.25;;;;;20.60;72.21;101926.56;4992557;28;8847;-69
2023/09/07 04:18:12;;;;;;;;;12.00;10.25;;;;;20.60;72.22;101932.03;5008597;28;9598;-70
2023/09/07 04:20:39;;;;;;;;;9.75;9.75;;;;;20.60;72.32;101932.88;4991400;28;8819;-70
2023/09/07 04:23:06;;;;;;;;;10.00;10.00;;;;;20.61;72.12;101939.16;4986685;28;8846;-69
2023/09/07 04:25:33;;;;;;;;;8.00;8.00;;;;;20.60;72.31;101940.25;5009776;28;8867;-69
2023/09/07 04:28:00;;;;;;;;;7.75;7.75;;;;;20.58;72.37;101937.75;5010522;28;8877;-69
2023/09/07 04:30:26;;;;;;;;;10.75;8.50;;;;;20.56;72.30;101937.16;5011836;28;8961;-69
2023/09/07 04:32:53;;;;;;;;;12.00;11.00;;;;;20.54;72.43;101936.56;4995859;28;8990;-69
2023/09/07 04:35:26;;;;;;;;;11.75;10.50;;;;;20.54;72.48;101938.44;5012259;28;8893;-69
2023/09/07 04:37:53;;;;;;;;;11.25;10.25;;;;;20.52;72.49;101938.69;4993190;28;9593;-69
2023/09/07 04:40:19;;;;;;;;;12.50;12.50;;;;;20.49;72.45;101939.97;5013201;28;8824;-69
2023/09/07 04:42:46;;;;;;;;;11.25;11.25;;;;;20.46;72.57;101937.69;5012889;28;8839;-69
2023/09/07 04:45:12;;;;;;;;;9.00;9.00;;;;;20.44;72.29;101936.25;4995687;28;8846;-69
2023/09/07 04:47:39;;;;;;;;;11.75;10.00;;;;;20.42;72.62;101936.50;5011805;28;8847;-69
2023/09/07 04:50:06;;;;;;;;;12.75;12.00;;;;;20.40;72.80;101938.63;5011781;28;8878;-69
2023/09/07 04:52:34;;;;;;;;;6.00;6.00;;;;;20.39;72.80;101936.13;4995465;28;8840;-69
2023/09/07 04:55:01;;;;;;;;;9.00;9.00;;;;;20.41;72.91;101936.72;5004243;28;8912;-69
2023/09/07 04:57:30;;;;;;;;;12.75;10.00;;;;;20.43;72.81;101940.88;4995313;28;8824;-69
2023/09/07 04:59:57;;;;;;;;;10.00;8.75;;;;;20.42;72.58;101944.69;4995127;28;8893;-69
2023/09/07 05:02:23;;;;;;;;;10.00;10.00;;;;;20.43;72.76;101942.78;4995227;28;8871;-69
2023/09/07 05:04:50;;;;;;;;;9.25;8.25;;;;;20.42;72.54;101947.44;4995469;28;8851;-69
2023/09/07 05:07:16;;;;;;;;;9.75;9.75;;;;;20.42;72.58;101947.44;4993423;28;8973;-69
2023/09/07 05:09:43;;;;;;;;;8.25;8.25;;;;;20.40;72.46;101946.00;4994122;28;8831;-69
2023/09/07 05:12:10;;;;;;;;;15.00;11.75;;;;;20.38;72.49;101950.88;5011370;28;8930;-69
2023/09/07 05:14:37;;;;;;;;;9.25;9.00;;;;;20.38;72.72;101956.34;5012961;28;8839;-70
2023/09/07 05:17:03;;;;;;;;;10.50;10.50;;;;;20.38;72.77;101953.59;5011295;28;9018;-69
2023/09/07 05:19:30;;;;;;;;;7.50;7.50;;;;;20.39;72.82;101963.47;5011409;28;8836;-70
2023/09/07 05:21:57;;;;;;;;;9.50;9.50;;;;;20.37;72.97;101963.69;5003152;28;8853;-71
2023/09/07 05:24:23;;;;;;;;;8.25;8.25;;;;;20.35;73.16;101957.63;4997316;28;8848;-71
2023/09/07 05:26:50;;;;;;;;;9.25;9.25;;;;;20.36;72.89;101970.22;5011189;28;8854;-70
2023/09/07 05:29:17;;;;;;;;;8.00;8.00;;;;;20.33;72.86;101970.69;4991617;28;8860;-70
2023/09/07 05:31:44;;;;;;;;;10.00;8.50;;;;;20.32;72.89;101970.94;4991329;28;8838;-70
2023/09/07 05:34:10;;;;;;;;;8.00;6.75;;;;;20.31;73.03;101972.00;4994364;28;8851;-70
2023/09/07 05:36:37;;;;;;;;;10.50;9.00;;;;;20.31;73.03;101969.25;4994898;28;9608;-71
2023/09/07 05:39:04;;;;;;;;;8.00;8.00;;;;;20.30;73.25;101975.81;4992004;28;8844;-70
2023/09/07 05:41:31;;;;;;;;;9.50;9.50;;;;;20.29;73.38;101974.94;5010540;28;8899;-70
2023/09/07 05:43:57;;;;;;;;;9.50;9.50;;;;;20.30;73.31;101984.00;4994637;28;8836;-70
2023/09/07 05:46:24;;;;;;;;;7.75;7.75;;;;;20.31;73.51;101977.47;4994421;28;8815;-71
2023/09/07 05:48:51;;;;;;;;;7.75;7.75;;;;;20.30;73.21;101971.16;4994273;28;9625;-70
2023/09/07 05:51:17;;;;;;;;;13.00;12.00;;;;;20.30;73.58;101976.63;5011650;28;8925;-70
2023/09/07 05:53:44;;;;;;;;;10.75;10.00;;;;;20.31;73.77;101981.03;4992934;28;8843;-71
2023/09/07 05:56:11;;;;;;;;;11.00;10.00;;;;;20.33;73.75;101972.59;4990014;28;10035;-70
2023/09/07 05:58:37;;;;;;;;;12.00;9.75;;;;;20.34;73.67;101977.00;5005517;28;8852;-70
2023/09/07 06:01:05;;;;;;;;;9.25;7.50;;;;;20.35;73.83;101975.94;5009593;28;8824;-71
2023/09/07 06:03:34;;;;;;;;;9.50;9.50;;;;;20.37;73.89;101976.53;4993625;28;8834;-70
2023/09/07 06:06:02;;;;;;;;;9.00;9.00;;;;;20.40;74.02;101978.81;4993925;28;8910;-70
2023/09/07 06:08:29;;;;;;;;;7.00;7.00;;;;;20.41;73.87;101984.03;4993762;28;8953;-71
2023/09/07 06:10:56;;;;;;;;;10.50;10.50;;;;;20.46;73.91;101997.03;5008811;28;8847;-70
2023/09/07 06:13:23;;;;;;;;;8.50;7.75;;;;;20.50;73.83;101992.81;4991281;28;8993;-71
2023/09/07 06:15:49;;;;;;;;;6.75;6.75;;;;;20.53;73.53;101997.78;5006028;28;8833;-71
2023/09/07 06:18:16;;;;;;;;;8.50;6.50;;;;;20.56;73.70;102004.72;5006274;28;8867;-71
2023/09/07 06:20:42;;;;;;;;;7.75;7.75;;;;;20.58;73.34;101995.22;5006035;28;8837;-71
2023/09/07 06:23:09;;;;;;;;;11.00;9.00;;;;;20.57;73.23;101992.69;4990188;28;8865;-71
2023/09/07 06:25:36;;;;;;;;;7.25;7.25;;;;;20.62;73.04;102001.88;4991908;28;8894;-70
2023/09/07 06:28:03;;;;;;;;;10.50;8.50;;;;;20.65;72.75;102001.41;4995425;28;8901;-71
2023/09/07 06:30:30;;;;;;;;;11.25;11.00;;;;;20.65;72.70;102011.50;4992781;28;9014;-70
2023/09/07 06:32:57;;;;;;;;;8.00;8.00;;;;;20.66;72.39;102003.09;5009642;28;9499;-70
2023/09/07 06:35:25;;;;;;;;;7.00;7.00;;;;;20.71;72.42;102011.41;5006376;28;8847;-70
2023/09/07 06:37:52;;;;;;;;;4.75;4.75;;;;;20.78;72.08;102015.94;5008498;28;8828;-70
2023/09/07 06:40:22;;;;;;;;;6.75;6.75;;;;;20.83;71.97;102008.72;4993237;28;8832;-70
2023/09/07 06:42:52;;;;;;;;;6.50;6.50;;;;;20.87;71.66;102017.31;4992557;28;8843;-70
2023/09/07 06:45:23;;;;;;;;;6.25;6.00;;;;;20.91;71.64;102022.06;4992747;28;8823;-70
2023/09/07 06:47:50;;;;;;;;;9.75;8.50;;;;;20.94;71.14;102009.78;4992449;28;8863;-70
2023/09/07 06:50:20;;;;;;;;;8.75;7.75;;;;;20.93;70.76;102016.34;4990797;28;8857;-69
2023/09/07 06:52:47;;;;;;;;;7.00;7.00;;;;;20.93;70.81;102019.91;4989640;28;8832;-70
2023/09/07 06:55:14;;;;;;;;;7.75;7.25;;;;;20.98;70.91;102020.06;4992719;28;8832;-70
2023/09/07 06:57:40;;;;;;;;;9.50;9.00;;;;;21.02;70.74;102016.84;4992466;28;8854;-69
2023/09/07 07:00:07;;;;;;;;;8.00;8.00;;;;;21.04;71.00;102010.06;5008757;28;8870;-70
2023/09/07 07:02:36;;;;;;;;;4.50;4.50;;;;;21.10;70.88;102014.59;5009794;28;8961;-71
2023/09/07 07:05:03;;;;;;;;;5.50;5.50;;;;;21.12;70.75;102011.63;4992244;28;8965;-70
2023/09/07 07:07:30;;;;;;;;;8.75;7.00;;;;;21.16;70.66;102012.81;4990555;28;8871;-71
2023/09/07 07:09:57;;;;;;;;;9.75;8.75;;;;;21.20;70.59;102009.38;4992573;28;8851;-70
2023/09/07 07:12:23;;;;;;;;;8.25;8.25;;;;;21.21;70.17;102013.78;4992935;28;9573;-70
2023/09/07 07:14:50;;;;;;;;;9.25;9.25;;;;;21.21;70.32;102018.41;5009366;28;8954;-70
2023/09/07 07:17:17;;;;;;;;;10.00;9.50;;;;;21.24;70.45;102016.03;4992861;28;8839;-70
2023/09/07 07:19:44;;;;;;;;;8.75;8.75;;;;;21.30;70.41;102017.00;4992703;28;8807;-69
2023/09/07 07:22:12;;;;;;;;;7.25;4.00;;;;;21.35;70.26;102017.16;4991775;28;8853;-70
2023/09/07 07:24:40;;;;;;;;;10.00;10.00;;;;;21.37;70.41;102020.47;4989550;28;8963;-70
2023/09/07 07:27:06;;;;;;;;;7.25;5.75;;;;;21.39;70.22;102015.63;4989540;28;8868;-71
2023/09/07 07:29:34;;;;;;;;;11.50;9.75;;;;;21.41;70.41;102020.84;4973218;28;8844;-71
2023/09/07 07:32:01;;;;;;;;;10.00;10.00;;;;;21.44;70.39;102021.22;4989273;28;8805;-71
2023/09/07 07:34:28;;;;;;;;;9.75;9.50;;;;;21.46;70.42;102027.28;4991369;28;8866;-71
2023/09/07 07:36:55;;;;;;;;;11.50;11.50;;;;;21.45;70.42;102022.88;4992488;28;8836;-71
2023/09/07 07:39:22;;;;;;;;;12.00;12.00;;;;;21.44;70.61;102023.13;4989388;28;8835;-70
2023/09/07 07:41:49;;;;;;;;;13.50;13.50;;;;;21.46;70.70;102018.22;4992417;28;8866;-70
2023/09/07 07:44:17;;;;;;;;;10.00;10.00;;;;;21.47;70.79;102019.88;5008662;28;8872;-71
2023/09/07 07:46:44;;;;;;;;;18.75;16.50;;;;;21.50;70.92;102019.41;5005317;28;8837;-70
2023/09/07 07:49:11;;;;;;;;;11.00;9.00;;;;;21.53;70.81;102018.94;4976830;28;9580;-71
2023/09/07 07:51:38;;;;;;;;;12.25;12.00;;;;;21.55;70.53;102011.31;4993646;28;9712;-70
2023/09/07 07:54:05;;;;;;;;;9.50;9.50;;;;;21.56;70.43;102002.03;4998241;28;8842;-71
2023/09/07 07:56:32;;;;;;;;;12.50;11.50;;;;;21.62;70.45;102005.72;5009821;28;8835;-71
2023/09/07 07:59:00;;;;;;;;;11.50;11.50;;;;;21.67;70.58;101998.44;5008779;28;9718;-71
2023/09/07 08:01:27;;;;;;;;;10.00;9.00;;;;;21.69;70.38;101995.47;4992161;28;8933;-71
2023/09/07 08:03:54;;;;;;;;;13.25;13.25;;;;;21.75;70.42;101999.97;5011315;28;9573;-71
2023/09/07 08:06:22;;;;;;;;;13.25;13.00;;;;;21.76;70.28;102003.56;4996349;28;8842;-71
2023/09/07 08:08:50;;;;;;;;;11.00;11.00;;;;;21.77;70.22;102005.22;5011238;28;8855;-72
2023/09/07 08:11:16;;;;;;;;;12.00;12.00;;;;;21.77;70.36;101997.00;5013204;28;8960;-71
2023/09/07 08:13:46;;;;;;;;;12.00;12.00;;;;;21.80;70.17;101999.28;5012317;28;8986;-71
2023/09/07 08:16:13;;;;;;;;;7.25;7.25;;;;;21.82;70.17;101999.84;4996275;28;8831;-71
2023/09/07 08:18:41;;;;;;;;;9.00;9.00;;;;;21.88;69.96;101994.25;4996617;28;8855;-71
2023/09/07 08:21:08;;;;;;;;;11.75;11.75;;;;;21.91;69.70;101999.22;4995861;28;8847;-71
2023/09/07 08:23:36;;;;;;;;;12.75;11.25;;;;;21.96;69.11;101993.03;4994170;28;8817;-71
2023/09/07 08:26:03;;;;;;;;;9.25;8.50;;;;;22.00;68.94;101994.22;4995565;28;8859;-71
2023/09/07 08:28:29;;;;;;;;;12.50;12.50;;;;;22.08;68.66;101993.84;4996013;28;8933;-71
2023/09/07 08:30:58;;;;;;;;;10.75;9.00;;;;;22.11;68.21;101984.28;4995808;28;8835;-71
2023/09/07 08:33:29;;;;;;;;;13.50;12.25;;;;;22.13;68.50;101984.91;5013971;28;8832;-71
2023/09/07 08:35:57;;;;;;;;;9.50;9.50;;;;;22.17;68.50;101978.69;5013856;28;8849;-71
2023/09/07 08:38:27;;;;;;;;;13.00;12.00;;;;;22.22;68.37;101972.47;5010117;28;8839;-71
2023/09/07 08:40:55;;;;;;;;;14.00;11.75;;;;;22.24;67.98;101974.94;5010969;28;8832;-71
2023/09/07 08:43:23;;;;;;;;;12.75;11.50;;;;;22.26;67.54;101973.63;4994188;28;8827;-71
2023/09/07 08:45:59;;;;;;;;;15.00;14.50;;;;;22.25;67.63;101971.16;4995822;28;8844;-70
2023/09/07 08:48:27;;;;;;;;;14.00;13.50;;;;;22.30;67.67;101969.31;5013366;28;8858;-71
2023/09/07 08:50:56;;;;;;;;;12.00;12.00;;;;;22.36;67.68;101968.38;5011704;28;8835;-71
2023/09/07 08:53:23;;;;;;;;;15.50;13.25;;;;;22.37;67.61;101972.75;5013284;28;8893;-71
2023/09/07 08:55:49;;;;;;;;;14.00;14.00;;;;;22.43;67.78;101973.69;5012675;28;8843;-71
2023/09/07 08:58:16;;;;;;;;;10.00;9.50;;;;;22.46;67.64;101968.53;5010006;28;8851;-72
2023/09/07 09:00:43;;;;;;;;;11.25;10.25;;;;;22.50;67.69;101974.38;4995394;28;8859;-71
2023/09/07 09:03:10;;;;;;;;;10.25;10.25;;;;;22.53;67.58;101964.81;5012828;28;8831;-70
2023/09/07 09:05:40;;;;;;;;;14.25;13.50;;;;;22.57;67.37;101971.47;4995365;28;8841;-72
2023/09/07 09:08:07;;;;;;;;;11.50;11.50;;;;;22.62;66.87;101968.81;5010439;28;8865;-71
2023/09/07 09:10:40;;;;;;;;;12.00;11.50;;;;;22.67;66.67;101960.66;5012445;28;9690;-71
2023/09/07 09:13:07;;;;;;;;;16.75;16.75;;;;;22.74;65.86;101957.78;5012218;28;8886;-71
2023/09/07 09:15:33;;;;;;;;;12.25;11.50;;;;;22.79;65.57;101963.34;4995123;28;8827;-72
2023/09/07 09:18:09;;;;;;;;;13.75;13.75;;;;;22.83;65.59;101953.53;5011173;28;9269;-71
2023/09/07 09:20:38;;;;;;;;;14.50;14.00;;;;;22.88;65.22;101950.84;5012090;28;8842;-70
2023/09/07 09:23:04;;;;;;;;;14.75;10.50;;;;;22.91;65.47;101950.41;5010633;28;8835;-70
2023/09/07 09:25:31;;;;;;;;;10.75;10.25;;;;;22.95;65.56;101946.06;5012634;28;8831;-71
2023/09/07 09:27:57;;;;;;;;;11.00;9.50;;;;;23.00;65.44;101948.88;5012357;28;8875;-71
2023/09/07 09:30:25;;;;;;;;;11.00;11.00;;;;;23.02;65.47;101952.22;5012003;28;8831;-71
2023/09/07 09:32:51;;;;;;;;;14.25;12.25;;;;;23.10;64.87;101949.06;5012166;28;8909;-72
2023/09/07 09:35:19;;;;;;;;;9.75;9.25;;;;;23.15;65.00;101953.78;4992477;28;8845;-71
2023/09/07 09:37:48;;;;;;;;;11.00;10.00;;;;;23.19;64.91;101949.47;5010802;28;9580;-71
2023/09/07 09:40:16;;;;;;;;;11.50;9.00;;;;;23.23;64.75;101955.28;4994173;28;8933;-71
2023/09/07 09:42:44;;;;;;;;;11.25;10.75;;;;;23.26;65.07;101946.56;4994839;28;8878;-70
2023/09/07 09:45:12;;;;;;;;;13.50;13.50;;;;;23.35;64.50;101939.53;5012013;28;8838;-71
2023/09/07 09:47:41;;;;;;;;;11.00;11.00;;;;;23.37;64.30;101953.84;5012222;28;8834;-71
2023/09/07 09:50:10;;;;;;;;;12.25;10.25;;;;;23.38;64.14;101953.59;5010189;28;8870;-71
2023/09/07 09:52:38;;;;;;;;;8.00;7.75;;;;;23.45;64.26;101947.91;4994405;28;8880;-71
2023/09/07 09:55:12;;;;;;;;;11.75;10.75;;;;;23.49;63.91;101942.72;4994301;28;8853;-71
2023/09/07 09:57:39;;;;;;;;;8.50;8.50;;;;;23.53;64.16;101943.88;4994257;28;8843;-70
2023/09/07 10:03:13;;;;;;;;;13.25;13.25;;;;;23.77;63.12;101939.00;4992459;28;8895;-71
2023/09/07 10:05:41;;;;;;;;;11.75;11.75;;;;;23.81;63.15;101940.16;4992774;28;8829;-72
2023/09/07 10:08:16;;;;;;;;;11.75;11.75;;;;;23.88;63.28;101941.63;4998548;28;8996;-71
2023/09/07 10:10:47;;;;;;;;;13.75;13.00;;;;;23.92;63.31;101947.44;5011236;28;8890;-71
2023/09/07 10:13:14;;;;;;;;;12.25;10.00;;;;;23.95;62.81;101940.63;4994025;28;8852;-70
2023/09/07 10:15:41;;;;;;;;;10.50;10.25;;;;;24.04;62.59;101939.06;4989199;28;8870;-71
2023/09/07 10:18:16;;;;;;;;;9.00;9.00;;;;;24.10;62.02;101938.84;5010606;28;8854;-70
2023/09/07 10:20:58;;;;;;;;;9.50;9.00;;;;;24.13;61.85;101935.59;5010651;28;8835;-71
2023/09/07 10:23:37;;;;;;;;;8.50;8.50;;;;;24.22;61.37;101935.13;4991108;28;8922;-71
2023/09/07 10:26:05;;;;;;;;;13.50;12.50;;;;;24.34;60.98;101939.38;5010408;28;8832;-71
2023/09/07 10:28:33;;;;;;;;;10.25;10.25;;;;;24.37;61.04;101936.13;5009658;28;8864;-71
2023/09/07 10:31:13;;;;;;;;;10.00;10.00;;;;;24.44;61.11;101933.19;4992915;28;8878;-70
2023/09/07 10:33:40;;;;;;;;;10.00;8.00;;;;;24.44;61.23;101937.88;5010514;28;8840;-70
2023/09/07 10:36:07;;;;;;;;;7.25;7.25;;;;;24.44;61.52;101933.19;5011092;28;8853;-70
2023/09/07 10:38:35;;;;;;;;;8.50;8.25;;;;;24.45;61.27;101931.28;4992704;28;9550;-71
2023/09/07 10:41:04;;;;;;;;;9.75;9.75;;;;;24.50;60.93;101934.06;5010265;28;8843;-70
2023/09/07 10:43:32;;;;;;;;;8.75;8.75;;;;;24.53;60.91;101942.63;5010448;28;8871;-71
2023/09/07 10:46:00;;;;;;;;;10.00;10.00;;;;;24.56;60.90;101930.28;5009547;28;9590;-71
2023/09/07 10:48:31;;;;;;;;;8.25;8.25;;;;;24.59;61.05;101933.34;4992737;28;8998;-70
2023/09/07 10:50:57;;;;;;;;;8.75;8.00;;;;;24.62;60.63;101926.47;5009974;28;8878;-70
2023/09/07 10:53:29;;;;;;;;;10.00;10.00;;;;;24.73;60.20;101930.16;5009438;28;8925;-70
2023/09/07 10:55:59;;;;;;;;;13.00;13.00;;;;;24.80;60.02;101928.00;5008516;28;8840;-71
2023/09/07 10:58:28;;;;;;;;;12.25;12.25;;;;;24.86;59.88;101926.94;5009662;28;8824;-71
2023/09/07 11:00:57;;;;;;;;;13.00;12.00;;;;;24.93;59.13;101930.31;5009282;28;8823;-71
2023/09/07 11:03:27;;;;;;;;;10.75;10.75;;;;;25.03;58.37;101930.34;4993314;28;8815;-71
2023/09/07 11:06:04;;;;;;;;;12.75;12.25;;;;;25.06;58.36;101929.84;5002708;28;8821;-71
2023/09/07 11:08:31;;;;;;;;;11.25;11.25;;;;;25.14;56.92;101914.75;5001932;28;8913;-70
2023/09/07 11:10:57;;;;;;;;;12.00;12.00;;;;;25.09;57.34;101923.00;5010238;28;8929;-71
2023/09/07 11:13:24;;;;;;;;;10.25;9.75;;;;;25.10;57.02;101917.22;5011031;28;8866;-70
2023/09/07 11:15:55;;;;;;;;;13.25;13.25;;;;;25.08;56.81;101916.63;5010650;28;8823;-69
2023/09/07 11:18:22;;;;;;;;;11.75;11.75;;;;;25.17;56.50;101919.75;5010711;28;9656;-70
2023/09/07 11:20:50;;;;;;;;;13.00;11.25;;;;;25.20;57.07;101915.63;4992668;28;8942;-69
2023/09/07 11:23:20;;;;;;;;;11.00;11.00;;;;;25.15;57.00;101905.41;4998443;28;8836;-69
2023/09/07 11:25:48;;;;;;;;;12.25;10.50;;;;;25.21;56.83;101900.75;5010353;28;8835;-69
2023/09/07 11:28:19;;;;;;;;;14.00;11.00;;;;;25.25;56.89;101910.97;4993178;28;8973;-70
2023/09/07 11:30:53;;;;;;;;;11.75;11.00;;;;;25.34;55.72;101898.34;5010026;28;8835;-69